ADDS METAR Data INFO
IDs: Format: Raw Decoded Include TAF

Data at: 2019 UTC 16 Dec 2017

KLJF 162015Z AUTO 01006KT 10SM OVC010 M01/M03 A2990 RMK AO2
KLJF 161955Z AUTO 35005KT 10SM BKN010 M01/M03 A2991 RMK AO2
KLJF 161935Z AUTO 36005KT 10SM SCT010 M01/M03 A2990 RMK AO2
KLJF 161915Z AUTO 35005KT 10SM SCT010 M01/M03 A2990 RMK AO2
KLJF 161855Z AUTO 35006KT 10SM SCT010 M01/M03 A2989 RMK AO2
KLJF 161835Z AUTO 02004KT 10SM SCT010 M01/M03 A2988 RMK AO2
KLJF 161815Z AUTO 03005KT 10SM BKN010 M02/M03 A2989 RMK AO2
KLJF 161755Z AUTO 03004KT 10SM BKN008 M02/M03 A2989 RMK AO2
KLJF 161735Z AUTO 03004KT 10SM BKN008 M02/M03 A2988 RMK AO2
KLJF 161715Z AUTO 00000KT 7SM OVC006 M02/M03 A2988 RMK AO2
KLJF 161656Z AUTO 03003KT 7SM OVC006 M03/M03 A2986 RMK AO2
KLJF 161635Z AUTO 02003KT 7SM OVC006 M03/M03 A2986 RMK AO2
KLJF 161615Z AUTO 05003KT 5SM BR OVC006 M03/M03 A2985 RMK AO2
KLJF 161555Z AUTO 00000KT 5SM BR OVC004 M03/M03 A2984 RMK AO2
KLJF 161535Z AUTO 07005KT 4SM BR OVC004 M03/M03 A2982 RMK AO2
KLJF 161515Z AUTO 05006KT 4SM BR OVC004 M04/M04 A2981 RMK AO2
KLJF 161455Z AUTO 06005KT 4SM BR OVC004 M04/M04 A2980 RMK AO2
KLJF 161435Z AUTO 07006KT 4SM BR OVC004 M04/M04 A2979 RMK AO2
KLJF 161415Z AUTO 08005KT 5SM BR OVC004 M04/M04 A2978 RMK AO2
KLJF 161355Z AUTO 08007KT 5SM BR OVC004 M04/M04 A2977 RMK AO2
KLJF 161335Z AUTO 06004KT 5SM BR OVC004 M03/M03 A2977 RMK AO2
KLJF 161315Z AUTO 07008KT 4SM BR OVC002 M03/M03 A2975 RMK AO2
KLJF 161255Z AUTO 07005KT 3SM BR OVC002 M03/M03 A2975 RMK AO2
KLJF 161235Z AUTO 05008KT 3SM BR OVC002 M03/M03 A2973 RMK AO2
KLJF 161215Z AUTO 07007KT 2SM BR OVC002 M03/M03 A2971 RMK AO2
KLJF 161155Z AUTO 07005KT 1 1/4SM BR OVC002 M03/M03 A2969 RMK AO2
KLJF 161135Z AUTO 05007KT 1SM BR OVC002 M03/M03 A2969 RMK AO2
KLJF 161115Z AUTO 06006KT 1SM BR OVC002 M03/M03 A2968 RMK AO2
KLJF 161055Z AUTO 07006KT 3/4SM BR OVC002 M03/M03 A2968 RMK AO2
KLJF 161035Z AUTO 07006KT 3/4SM BR OVC002 M02/M02 A2967 RMK AO2
KLJF 161015Z AUTO 07006KT 2SM BR OVC002 M02/M02 A2966 RMK AO2
KLJF 160955Z AUTO 07005KT 4SM BR OVC004 M02/M02 A2967 RMK AO2
KLJF 160935Z AUTO 07006KT 5SM BR BKN004 BKN110 M02/M02 A2966 RMK AO2
KLJF 160915Z AUTO 07005KT 5SM BR SCT110 M02/M02 A2966 RMK AO2
KLJF 160855Z AUTO 07004KT 7SM CLR M02/M02 A2964 RMK AO2
KLJF 160835Z AUTO 08003KT 7SM CLR M02/M02 A2964 RMK AO2
KLJF 160815Z AUTO 10004KT 7SM SCT110 M02/M02 A2963 RMK AO2
KLJF 160755Z AUTO 06004KT 7SM SCT110 M01/M01 A2963 RMK AO2
KLJF 160735Z AUTO 09004KT 7SM SCT110 M01/M01 A2963 RMK AO2
KLJF 160715Z AUTO 10005KT 10SM BKN110 M01/M01 A2963 RMK AO2
KLJF 160655Z AUTO 10006KT 10SM SCT050 BKN110 M01/M01 A2963 RMK AO2
KLJF 160635Z AUTO 11005KT 10SM OVC050 M01/M01 A2964 RMK AO2
KLJF 160615Z AUTO 10006KT 10SM OVC050 M01/M01 A2963 RMK AO2
KLJF 160555Z AUTO 09004KT 10SM SCT050 M02/M02 A2964 RMK AO2
KLJF 160535Z AUTO 09005KT 10SM CLR M02/M02 A2963 RMK AO2
KLJF 160515Z AUTO 11006KT 10SM CLR M02/M02 A2962 RMK AO2
KLJF 160455Z AUTO 12005KT 10SM CLR M02/M02 A2963 RMK AO2
KLJF 160435Z AUTO 12007KT 10SM CLR M01/M02 A2963 RMK AO2
KLJF 160415Z AUTO 12008KT 10SM CLR M02/M02 A2963 RMK AO2
KLJF 160355Z AUTO 12007KT 10SM SCT075 M02/M02 A2964 RMK AO2
KLJF 160335Z AUTO 12007KT 10SM OVC075 M02/M02 A2965 RMK AO2
KLJF 160315Z AUTO 12007KT 10SM OVC075 M02/M02 A2967 RMK AO2
KLJF 160255Z AUTO 12005KT 10SM SCT055 BKN065 OVC085 M02/M02 A2968 RMK AO2
KLJF 160235Z AUTO 11007KT 10SM BKN065 M02/M03 A2968 RMK AO2
KLJF 160215Z AUTO 10004KT 10SM SCT044 SCT050 BKN065 M02/M03 A2970 RMK AO2
KLJF 160155Z AUTO 12006KT 10SM BKN065 OVC070 M02/M03 A2970 RMK AO2
KLJF 160135Z AUTO 11006KT 10SM OVC065 M02/M03 A2970 RMK AO2
KLJF 160115Z AUTO 11006KT 10SM SCT065 BKN075 M02/M02 A2970 RMK AO2
KLJF 160055Z AUTO 12007KT 10SM SCT065 SCT085 M02/M03 A2970 RMK AO2
KLJF 160035Z AUTO 13006KT 10SM SCT075 OVC085 M02/M03 A2971 RMK AO2
KLJF 160015Z AUTO 13006KT 10SM SCT070 SCT075 OVC085 M02/M03 A2971 RMK AO2
KLJF 152355Z AUTO 14005KT 10SM OVC070 M02/M03 A2972 RMK AO2
KLJF 152335Z AUTO 13005KT 10SM BKN070 OVC085 M02/M03 A2972 RMK AO2
KLJF 152315Z AUTO 12006KT 10SM SCT008 BKN085 M02/M03 A2972 RMK AO2
KLJF 152255Z AUTO 13005KT 10SM OVC008 M02/M03 A2973 RMK AO2
KLJF 152235Z AUTO 13004KT 10SM OVC008 M02/M03 A2974 RMK AO2
KLJF 152215Z AUTO 14004KT 10SM UP OVC008 M02/M03 A2974 RMK AO2
KLJF 152155Z AUTO 15004KT 10SM OVC010 M02/M03 A2975 RMK AO2
KLJF 152135Z AUTO 14004KT 10SM OVC010 M02/M03 A2975 RMK AO2
KLJF 152115Z AUTO 15003KT 10SM OVC010 M02/M03 A2976 RMK AO2
KLJF 152055Z AUTO 14003KT 10SM OVC010 M02/M03 A2977 RMK AO2
KLJF 152035Z AUTO 13004KT 10SM BKN010 OVC019 M02/M03 A2976 RMK AO2
KLJF 152016Z AUTO 14003KT 10SM BKN012 OVC019 M02/M04 A2977 RMK AO2
KLJF 151955Z AUTO 14003KT 10SM BKN012 OVC021 M02/M04 A2977 RMK AO2
KLJF 151935Z AUTO 00000KT 10SM BKN012 OVC021 M02/M04 A2978 RMK AO2
KLJF 151915Z AUTO 00000KT 10SM OVC014 M02/M04 A2980 RMK AO2
KLJF 151855Z AUTO 00000KT 10SM UP BKN014 OVC041 M02/M04 A2981 RMK AO2
KLJF 151835Z AUTO 00000KT 10SM UP BKN014 M02/M05 A2981 RMK AO2
KLJF 151815Z AUTO 00000KT 10SM -SN SCT014 M02/M05 A2982 RMK AO2
KLJF 151755Z AUTO 00000KT 10SM UP OVC014 M02/M05 A2983 RMK AO2
KLJF 151735Z AUTO 00000KT 10SM OVC016 M03/M05 A2985 RMK AO2
KLJF 151715Z AUTO 00000KT 10SM OVC016 M03/M06 A2987 RMK AO2
KLJF 151655Z AUTO 00000KT 10SM BKN018 OVC042 M03/M06 A2987 RMK AO2
KLJF 151635Z AUTO 00000KT 10SM SCT018 OVC042 M03/M06 A2986 RMK AO2
KLJF 151615Z AUTO 00000KT 10SM SCT011 OVC018 M03/M06 A2987 RMK AO2
KLJF 151555Z AUTO 00000KT 10SM SCT011 OVC018 M04/M06 A2987 RMK AO2
KLJF 151535Z AUTO 00000KT 10SM BKN018 BKN035 OVC041 M04/M06 A2988 RMK AO2
KLJF 151515Z AUTO 00000KT 10SM SCT013 BKN018 OVC036 M04/M06 A2987 RMK AO2
KLJF 151455Z AUTO 00000KT 10SM OVC013 M04/M06 A2988 RMK AO2
KLJF 151435Z AUTO 03003KT 10SM BKN013 OVC018 M04/M06 A2989 RMK AO2
KLJF 151415Z AUTO 00000KT 10SM OVC018 M04/M05 A2988 RMK AO2
KLJF 151355Z AUTO 00000KT 10SM OVC018 M04/M05 A2988 RMK AO2
KLJF 151335Z AUTO 00000KT 10SM OVC020 M04/M05 A2987 RMK AO2
KLJF 151315Z AUTO 00000KT 10SM OVC020 M04/M04 A2988 RMK AO2
KLJF 151255Z AUTO 01004KT 10SM OVC018 M04/M04 A2988 RMK AO2
KLJF 151235Z AUTO 34003KT 10SM OVC016 M03/M04 A2989 RMK AO2
KLJF 151215Z AUTO 35004KT 10SM OVC016 M03/M04 A2989 RMK AO2
KLJF 151155Z AUTO 34005KT 10SM OVC014 M03/M04 A2989 RMK AO2
KLJF 151135Z AUTO 00000KT 10SM -SN OVC012 M03/M04 A2989 RMK AO2
KLJF 151115Z AUTO 00000KT 10SM OVC012 M03/M04 A2990 RMK AO2
KLJF 151055Z AUTO 00000KT 10SM OVC014 M03/M04 A2990 RMK AO2
KLJF 151035Z AUTO 00000KT 10SM OVC014 M04/M04 A2990 RMK AO2
KLJF 151015Z AUTO 00000KT 10SM BKN014 BKN039 OVC060 M04/M04 A2990 RMK AO2
KLJF 150955Z AUTO 00000KT 10SM SCT023 BKN039 OVC060 M04/M05 A2991 RMK AO2
KLJF 150935Z AUTO 00000KT 10SM SCT016 BKN023 OVC034 M04/M05 A2992 RMK AO2
KLJF 150915Z AUTO 00000KT 10SM SCT016 BKN021 OVC036 M04/M05 A2992 RMK AO2
KLJF 150855Z AUTO 00000KT 10SM SCT017 OVC034 M04/M05 A2993 RMK AO2
KLJF 150835Z AUTO 00000KT 10SM BKN019 BKN027 OVC032 M04/M05 A2993 RMK AO2